sensor_id;sensor_type;location;lat;lon;timestamp;pressure;altitude;pressure_sealevel;temperature;humidity
5595;BME280;1003;48.002;7.788;2023-04-02T00:00:17;98611.06;;;8.52;100.00
5595;BME280;1003;48.002;7.788;2023-04-02T00:02:48;98607.75;;;8.49;100.00
5595;BME280;1003;48.002;7.788;2023-04-02T00:05:40;98612.75;;;8.49;100.00
5595;BME280;1003;48.002;7.788;2023-04-02T00:08:24;98615.31;;;8.46;100.00
5595;BME280;1003;48.002;7.788;2023-04-02T00:10:54;98611.97;;;8.45;100.00
5595;BME280;1003;48.002;7.788;2023-04-02T00:13:32;98613.56;;;8.49;100.00
5595;BME280;1003;48.002;7.788;2023-04-02T00:16:06;98615.25;;;8.52;100.00
5595;BME280;1003;48.002;7.788;2023-04-02T00:18:39;98616.09;;;8.49;100.00
5595;BME280;1003;48.002;7.788;2023-04-02T00:21:15;98620.31;;;8.44;100.00
5595;BME280;1003;48.002;7.788;2023-04-02T00:23:45;98623.66;;;8.46;100.00
5595;BME280;1003;48.002;7.788;2023-04-02T00:26:29;98623.63;;;8.45;100.00
5595;BME280;1003;48.002;7.788;2023-04-02T00:28:56;98617.03;;;8.40;100.00
5595;BME280;1003;48.002;7.788;2023-04-02T00:31:25;98616.13;;;8.45;100.00
5595;BME280;1003;48.002;7.788;2023-04-02T00:33:53;98615.31;;;8.43;100.00
5595;BME280;1003;48.002;7.788;2023-04-02T00:36:24;98614.38;;;8.53;100.00
5595;BME280;1003;48.002;7.788;2023-04-02T00:38:54;98616.16;;;8.43;100.00
5595;BME280;1003;48.002;7.788;2023-04-02T00:41:26;98627.88;;;8.41;100.00
5595;BME280;1003;48.002;7.788;2023-04-02T00:43:57;98617.78;;;8.50;100.00
5595;BME280;1003;48.002;7.788;2023-04-02T00:46:32;98615.31;;;8.44;100.00
5595;BME280;1003;48.002;7.788;2023-04-02T00:49:22;98612.88;;;8.38;100.00
5595;BME280;1003;48.002;7.788;2023-04-02T00:51:56;98612.06;;;8.31;100.00
5595;BME280;1003;48.002;7.788;2023-04-02T00:54:30;98615.56;;;8.18;100.00
5595;BME280;1003;48.002;7.788;2023-04-02T00:56:58;98612.28;;;8.10;100.00
5595;BME280;1003;48.002;7.788;2023-04-02T00:59:29;98618.16;;;8.07;100.00
5595;BME280;1003;48.002;7.788;2023-04-02T01:02:20;98618.19;;;8.04;100.00
5595;BME280;1003;48.002;7.788;2023-04-02T01:04:52;98613.25;;;7.97;100.00
5595;BME280;1003;48.002;7.788;2023-04-02T01:07:36;98616.63;;;7.91;100.00
5595;BME280;1003;48.002;7.788;2023-04-02T01:10:29;98625.69;;;8.04;100.00
5595;BME280;1003;48.002;7.788;2023-04-02T01:13:12;98625.66;;;8.07;100.00
5595;BME280;1003;48.002;7.788;2023-04-02T01:15:52;98629.81;;;8.10;100.00
5595;BME280;1003;48.002;7.788;2023-04-02T01:18:43;98633.94;;;8.12;100.00
5595;BME280;1003;48.002;7.788;2023-04-02T01:21:40;98632.22;;;8.18;100.00
5595;BME280;1003;48.002;7.788;2023-04-02T01:24:18;98637.22;;;8.21;100.00
5595;BME280;1003;48.002;7.788;2023-04-02T01:26:52;98640.41;;;8.39;100.00
5595;BME280;1003;48.002;7.788;2023-04-02T01:29:26;98637.91;;;8.39;100.00
5595;BME280;1003;48.002;7.788;2023-04-02T01:31:59;98642.03;;;8.42;100.00
5595;BME280;1003;48.002;7.788;2023-04-02T01:34:28;98632.03;;;8.39;100.00
5595;BME280;1003;48.002;7.788;2023-04-02T01:37:12;98642.88;;;8.43;100.00
5595;BME280;1003;48.002;7.788;2023-04-02T01:40:02;98646.97;;;8.48;100.00
5595;BME280;1003;48.002;7.788;2023-04-02T01:42:37;98646.25;;;8.40;100.00
5595;BME280;1003;48.002;7.788;2023-04-02T01:45:11;98633.66;;;8.46;100.00
5595;BME280;1003;48.002;7.788;2023-04-02T01:47:41;98637.84;;;8.44;100.00
5595;BME280;1003;48.002;7.788;2023-04-02T01:50:23;98645.25;;;8.56;100.00
5595;BME280;1003;48.002;7.788;2023-04-02T01:52:55;98638.56;;;8.55;100.00
5595;BME280;1003;48.002;7.788;2023-04-02T01:55:32;98640.25;;;8.53;100.00
5595;BME280;1003;48.002;7.788;2023-04-02T01:58:01;98648.56;;;8.55;100.00
5595;BME280;1003;48.002;7.788;2023-04-02T02:00:31;98657.72;;;8.59;100.00
5595;BME280;1003;48.002;7.788;2023-04-02T02:03:01;98653.59;;;8.57;100.00
5595;BME280;1003;48.002;7.788;2023-04-02T02:05:29;98656.91;;;8.57;100.00
5595;BME280;1003;48.002;7.788;2023-04-02T02:07:58;98646.91;;;8.57;100.00
5595;BME280;1003;48.002;7.788;2023-04-02T02:10:32;98657.75;;;8.55;100.00
5595;BME280;1003;48.002;7.788;2023-04-02T02:13:00;98650.19;;;8.62;100.00
5595;BME280;1003;48.002;7.788;2023-04-02T02:15:32;98653.56;;;8.58;100.00
5595;BME280;1003;48.002;7.788;2023-04-02T02:18:04;98660.25;;;8.58;100.00
5595;BME280;1003;48.002;7.788;2023-04-02T02:20:32;98660.34;;;8.50;100.00
5595;BME280;1003;48.002;7.788;2023-04-02T02:23:01;98662.78;;;8.53;100.00
5595;BME280;1003;48.002;7.788;2023-04-02T02:25:33;98663.66;;;8.49;100.00
5595;BME280;1003;48.002;7.788;2023-04-02T02:28:06;98667.91;;;8.43;100.00
5595;BME280;1003;48.002;7.788;2023-04-02T02:30:40;98672.91;;;8.44;100.00
5595;BME280;1003;48.002;7.788;2023-04-02T02:33:17;98676.16;;;8.52;100.00
5595;BME280;1003;48.002;7.788;2023-04-02T02:35:52;98675.47;;;8.39;100.00
5595;BME280;1003;48.002;7.788;2023-04-02T02:38:46;98680.50;;;8.32;100.00
5595;BME280;1003;48.002;7.788;2023-04-02T02:41:21;98666.31;;;8.32;100.00
5595;BME280;1003;48.002;7.788;2023-04-02T02:43:59;98670.53;;;8.26;100.00
5595;BME280;1003;48.002;7.788;2023-04-02T02:46:31;98662.22;;;8.24;100.00
5595;BME280;1003;48.002;7.788;2023-04-02T02:49:01;98667.25;;;8.21;100.00
5595;BME280;1003;48.002;7.788;2023-04-02T02:51:41;98677.28;;;8.18;100.00
5595;BME280;1003;48.002;7.788;2023-04-02T02:54:10;98683.09;;;8.24;100.00
5595;BME280;1003;48.002;7.788;2023-04-02T02:56:43;98693.88;;;8.28;100.00
5595;BME280;1003;48.002;7.788;2023-04-02T02:59:15;98694.72;;;8.27;100.00
5595;BME280;1003;48.002;7.788;2023-04-02T03:01:45;98703.94;;;8.25;100.00
5595;BME280;1003;48.002;7.788;2023-04-02T03:04:17;98709.75;;;8.27;100.00
5595;BME280;1003;48.002;7.788;2023-04-02T03:06:48;98714.81;;;8.21;100.00
5595;BME280;1003;48.002;7.788;2023-04-02T03:09:30;98719.84;;;8.16;100.00
5595;BME280;1003;48.002;7.788;2023-04-02T03:12:10;98729.06;;;8.14;100.00
5595;BME280;1003;48.002;7.788;2023-04-02T03:14:45;98727.38;;;8.14;100.00
5595;BME280;1003;48.002;7.788;2023-04-02T03:17:21;98735.72;;;8.12;100.00
5595;BME280;1003;48.002;7.788;2023-04-02T03:19:59;98731.59;;;8.09;100.00
5595;BME280;1003;48.002;7.788;2023-04-02T03:22:37;98732.47;;;8.04;100.00
5595;BME280;1003;48.002;7.788;2023-04-02T03:25:23;98740.81;;;8.01;100.00
5595;BME280;1003;48.002;7.788;2023-04-02T03:27:58;98741.69;;;7.97;100.00
5595;BME280;1003;48.002;7.788;2023-04-02T03:30:33;98748.28;;;8.06;100.00
5595;BME280;1003;48.002;7.788;2023-04-02T03:33:10;98747.50;;;8.02;100.00
5595;BME280;1003;48.002;7.788;2023-04-02T03:35:45;98746.66;;;8.00;100.00
5595;BME280;1003;48.002;7.788;2023-04-02T03:38:21;98746.69;;;7.99;100.00
5595;BME280;1003;48.002;7.788;2023-04-02T03:41:02;98734.19;;;7.96;100.00
5595;BME280;1003;48.002;7.788;2023-04-02T03:43:38;98734.97;;;8.01;100.00
5595;BME280;1003;48.002;7.788;2023-04-02T03:46:21;98738.31;;;8.03;100.00
5595;BME280;1003;48.002;7.788;2023-04-02T03:48:53;98729.97;;;8.02;100.00
5595;BME280;1003;48.002;7.788;2023-04-02T03:51:26;98732.53;;;7.93;100.00
5595;BME280;1003;48.002;7.788;2023-04-02T03:53:56;98734.19;;;7.94;100.00
5595;BME280;1003;48.002;7.788;2023-04-02T03:56:28;98736.66;;;8.02;100.00
5595;BME280;1003;48.002;7.788;2023-04-02T03:59:10;98723.25;;;8.06;100.00
5595;BME280;1003;48.002;7.788;2023-04-02T04:01:47;98724.19;;;7.97;100.00
5595;BME280;1003;48.002;7.788;2023-04-02T04:04:18;98723.38;;;7.92;100.00
5595;BME280;1003;48.002;7.788;2023-04-02T04:06:50;98717.53;;;7.92;100.00
5595;BME280;1003;48.002;7.788;2023-04-02T04:09:24;98718.41;;;7.87;100.00
5595;BME280;1003;48.002;7.788;2023-04-02T04:12:06;98720.88;;;7.89;100.00
5595;BME280;1003;48.002;7.788;2023-04-02T04:14:39;98724.22;;;7.91;100.00
5595;BME280;1003;48.002;7.788;2023-04-02T04:17:15;98733.41;;;7.89;100.00
5595;BME280;1003;48.002;7.788;2023-04-02T04:19:53;98716.72;;;7.89;100.00
5595;BME280;1003;48.002;7.788;2023-04-02T04:22:27;98722.56;;;7.88;100.00
5595;BME280;1003;48.002;7.788;2023-04-02T04:24:58;98721.72;;;7.89;100.00
5595;BME280;1003;48.002;7.788;2023-04-02T04:27:35;98715.91;;;7.86;100.00
5595;BME280;1003;48.002;7.788;2023-04-02T04:30:20;98725.88;;;7.92;100.00
5595;BME280;1003;48.002;7.788;2023-04-02T04:32:55;98720.06;;;7.87;100.00
5595;BME280;1003;48.002;7.788;2023-04-02T04:35:31;98730.09;;;7.87;100.00
5595;BME280;1003;48.002;7.788;2023-04-02T04:38:06;98735.91;;;7.89;100.00
5595;BME280;1003;48.002;7.788;2023-04-02T04:40:44;98740.94;;;7.86;100.00
5595;BME280;1003;48.002;7.788;2023-04-02T04:43:27;98745.94;;;7.83;100.00
5595;BME280;1003;48.002;7.788;2023-04-02T04:46:02;98745.94;;;7.86;100.00
5595;BME280;1003;48.002;7.788;2023-04-02T04:48:36;98750.06;;;7.88;100.00
5595;BME280;1003;48.002;7.788;2023-04-02T04:51:09;98750.94;;;7.86;100.00
5595;BME280;1003;48.002;7.788;2023-04-02T04:53:47;98758.47;;;7.80;100.00
5595;BME280;1003;48.002;7.788;2023-04-02T04:56:20;98760.94;;;7.86;100.00
5595;BME280;1003;48.002;7.788;2023-04-02T04:58:52;98755.09;;;7.85;100.00
5595;BME280;1003;48.002;7.788;2023-04-02T05:01:26;98753.44;;;7.80;100.00
5595;BME280;1003;48.002;7.788;2023-04-02T05:04:03;98753.50;;;7.75;100.00
5595;BME280;1003;48.002;7.788;2023-04-02T05:06:39;98755.13;;;7.82;100.00
5595;BME280;1003;48.002;7.788;2023-04-02T05:09:17;98751.81;;;7.77;100.00
5595;BME280;1003;48.002;7.788;2023-04-02T05:11:57;98754.34;;;7.76;100.00
5595;BME280;1003;48.002;7.788;2023-04-02T05:14:33;98747.69;;;7.70;100.00
5595;BME280;1003;48.002;7.788;2023-04-02T05:17:07;98761.00;;;7.74;100.00
5595;BME280;1003;48.002;7.788;2023-04-02T05:19:42;98756.03;;;7.71;100.00
5595;BME280;1003;48.002;7.788;2023-04-02T05:22:24;98754.31;;;7.80;100.00
5595;BME280;1003;48.002;7.788;2023-04-02T05:25:09;98758.47;;;7.80;100.00
5595;BME280;1003;48.002;7.788;2023-04-02T05:27:47;98757.66;;;7.81;100.00
5595;BME280;1003;48.002;7.788;2023-04-02T05:30:41;98754.34;;;7.73;100.00
5595;BME280;1003;48.002;7.788;2023-04-02T05:33:22;98754.34;;;7.71;100.00
5595;BME280;1003;48.002;7.788;2023-04-02T05:35:57;98755.16;;;7.76;100.00
5595;BME280;1003;48.002;7.788;2023-04-02T05:38:31;98755.97;;;7.80;100.00
5595;BME280;1003;48.002;7.788;2023-04-02T05:41:02;98756.78;;;7.86;100.00
5595;BME280;1003;48.002;7.788;2023-04-02T05:43:33;98747.63;;;7.82;100.00
5595;BME280;1003;48.002;7.788;2023-04-02T05:46:13;98756.81;;;7.82;100.00
5595;BME280;1003;48.002;7.788;2023-04-02T05:48:43;98759.25;;;7.85;100.00
5595;BME280;1003;48.002;7.788;2023-04-02T05:51:21;98750.06;;;7.92;100.00
5595;BME280;1003;48.002;7.788;2023-04-02T05:53:57;98757.50;;;8.01;100.00
5595;BME280;1003;48.002;7.788;2023-04-02T05:56:33;98760.88;;;7.98;100.00
5595;BME280;1003;48.002;7.788;2023-04-02T05:59:06;98771.72;;;7.96;100.00
5595;BME280;1003;48.002;7.788;2023-04-02T06:01:41;98780.09;;;7.93;100.00
5595;BME280;1003;48.002;7.788;2023-04-02T06:04:21;98787.56;;;7.95;100.00
5595;BME280;1003;48.002;7.788;2023-04-02T06:06:57;98804.25;;;7.94;100.00
5595;BME280;1003;48.002;7.788;2023-04-02T06:09:38;98827.53;;;8.07;100.00
5595;BME280;1003;48.002;7.788;2023-04-02T06:12:27;98830.03;;;8.13;100.00
5595;BME280;1003;48.002;7.788;2023-04-02T06:14:57;98837.44;;;8.27;100.00
5595;BME280;1003;48.002;7.788;2023-04-02T06:17:24;98841.56;;;8.40;100.00
5595;BME280;1003;48.002;7.788;2023-04-02T06:19:55;98841.44;;;8.54;100.00
5595;BME280;1003;48.002;7.788;2023-04-02T06:22:31;98835.47;;;8.73;100.00
5595;BME280;1003;48.002;7.788;2023-04-02T06:25:05;98816.22;;;8.75;100.00
5595;BME280;1003;48.002;7.788;2023-04-02T06:27:38;98807.78;;;8.88;100.00
5595;BME280;1003;48.002;7.788;2023-04-02T06:30:16;98800.97;;;9.01;100.00
5595;BME280;1003;48.002;7.788;2023-04-02T06:32:45;98804.34;;;8.97;100.00
5595;BME280;1003;48.002;7.788;2023-04-02T06:35:12;98815.13;;;9.05;100.00
5595;BME280;1003;48.002;7.788;2023-04-02T06:37:43;98823.44;;;9.10;100.00
5595;BME280;1003;48.002;7.788;2023-04-02T06:40:32;98835.75;;;9.32;100.00
5595;BME280;1003;48.002;7.788;2023-04-02T06:43:10;98849.97;;;9.30;100.00
5595;BME280;1003;48.002;7.788;2023-04-02T06:45:43;98861.66;;;9.31;100.00
5595;BME280;1003;48.002;7.788;2023-04-02T06:48:15;98876.50;;;9.51;100.00
5595;BME280;1003;48.002;7.788;2023-04-02T06:50:48;98890.56;;;9.65;100.00
5595;BME280;1003;48.002;7.788;2023-04-02T06:53:22;98903.63;;;9.93;100.00
5595;BME280;1003;48.002;7.788;2023-04-02T06:55:59;98911.06;;;10.01;100.00
5595;BME280;1003;48.002;7.788;2023-04-02T06:58:28;98920.84;;;10.24;100.00
5595;BME280;1003;48.002;7.788;2023-04-02T07:00:56;98918.28;;;10.27;100.00
5595;BME280;1003;48.002;7.788;2023-04-02T07:03:26;98933.78;;;10.58;100.00
5595;BME280;1003;48.002;7.788;2023-04-02T07:05:55;98934.75;;;10.48;100.00
5595;BME280;1003;48.002;7.788;2023-04-02T07:08:23;98931.94;;;10.69;100.00
5595;BME280;1003;48.002;7.788;2023-04-02T07:10:50;98927.59;;;10.82;100.00
5595;BME280;1003;48.002;7.788;2023-04-02T07:13:22;98926.13;;;11.20;100.00
5595;BME280;1003;48.002;7.788;2023-04-02T07:15:52;98927.72;;;11.72;100.00
5595;BME280;1003;48.002;7.788;2023-04-02T07:18:25;98942.31;;;12.01;100.00
5595;BME280;1003;48.002;7.788;2023-04-02T07:20:52;98936.53;;;11.96;100.00
5595;BME280;1003;48.002;7.788;2023-04-02T07:23:20;98957.19;;;12.13;100.00
5595;BME280;1003;48.002;7.788;2023-04-02T07:25:47;98966.13;;;12.28;100.00
5595;BME280;1003;48.002;7.788;2023-04-02T07:28:15;98980.28;;;12.32;100.00
5595;BME280;1003;48.002;7.788;2023-04-02T07:30:44;98982.53;;;12.46;100.00
5595;BME280;1003;48.002;7.788;2023-04-02T07:33:13;98983.06;;;12.61;100.00
5595;BME280;1003;48.002;7.788;2023-04-02T07:35:42;98985.34;;;12.72;100.00
5595;BME280;1003;48.002;7.788;2023-04-02T07:38:09;98985.28;;;12.74;100.00
5595;BME280;1003;48.002;7.788;2023-04-02T07:40:36;98984.47;;;12.73;100.00
5595;BME280;1003;48.002;7.788;2023-04-02T07:43:04;98976.59;;;12.50;100.00
5595;BME280;1003;48.002;7.788;2023-04-02T07:45:32;98974.69;;;12.59;100.00
5595;BME280;1003;48.002;7.788;2023-04-02T07:48:05;98977.03;;;13.04;100.00
5595;BME280;1003;48.002;7.788;2023-04-02T07:50:32;98974.94;;;13.23;100.00
5595;BME280;1003;48.002;7.788;2023-04-02T07:53:00;98978.13;;;13.31;100.00
5595;BME280;1003;48.002;7.788;2023-04-02T07:55:27;98981.25;;;13.41;100.00
5595;BME280;1003;48.002;7.788;2023-04-02T07:57:58;98978.28;;;13.58;100.00
5595;BME280;1003;48.002;7.788;2023-04-02T08:00:26;98984.03;;;13.29;100.00
5595;BME280;1003;48.002;7.788;2023-04-02T08:02:54;98991.78;;;13.57;100.00
5595;BME280;1003;48.002;7.788;2023-04-02T08:05:22;98981.72;;;13.55;100.00
5595;BME280;1003;48.002;7.788;2023-04-02T08:07:54;98985.66;;;13.67;100.00
5595;BME280;1003;48.002;7.788;2023-04-02T08:10:22;98983.38;;;13.56;100.00
5595;BME280;1003;48.002;7.788;2023-04-02T08:12:49;98975.31;;;13.75;100.00
5595;BME280;1003;48.002;7.788;2023-04-02T08:15:17;98971.09;;;14.06;100.00
5595;BME280;1003;48.002;7.788;2023-04-02T08:17:45;98982.75;;;13.81;100.00
5595;BME280;1003;48.002;7.788;2023-04-02T08:20:15;98971.28;;;14.30;100.00
5595;BME280;1003;48.002;7.788;2023-04-02T08:22:44;98959.91;;;14.44;100.00
5595;BME280;1003;48.002;7.788;2023-04-02T08:25:12;98948.06;;;14.17;100.00
5595;BME280;1003;48.002;7.788;2023-04-02T08:27:39;98941.03;;;13.33;100.00
5595;BME280;1003;48.002;7.788;2023-04-02T08:30:09;98959.69;;;13.62;100.00
5595;BME280;1003;48.002;7.788;2023-04-02T08:32:38;98963.06;;;13.92;100.00
5595;BME280;1003;48.002;7.788;2023-04-02T08:35:07;98961.91;;;14.04;100.00
5595;BME280;1003;48.002;7.788;2023-04-02T08:37:34;98959.06;;;14.16;100.00
5595;BME280;1003;48.002;7.788;2023-04-02T08:40:04;98949.63;;;14.21;100.00
5595;BME280;1003;48.002;7.788;2023-04-02T08:42:39;98942.81;;;14.23;100.00
5595;BME280;1003;48.002;7.788;2023-04-02T08:45:19;98940.38;;;13.90;100.00
5595;BME280;1003;48.002;7.788;2023-04-02T08:47:49;98943.84;;;14.45;100.00
5595;BME280;1003;48.002;7.788;2023-04-02T08:50:27;98936.06;;;15.08;100.00
5595;BME280;1003;48.002;7.788;2023-04-02T08:52:57;98917.53;;;15.07;100.00
5595;BME280;1003;48.002;7.788;2023-04-02T08:55:38;98923.28;;;14.58;100.00
5595;BME280;1003;48.002;7.788;2023-04-02T08:58:22;98930.41;;;15.00;100.00
5595;BME280;1003;48.002;7.788;2023-04-02T09:00:54;98916.03;;;14.75;100.00
5595;BME280;1003;48.002;7.788;2023-04-02T09:03:29;98909.28;;;15.01;100.00
5595;BME280;1003;48.002;7.788;2023-04-02T09:06:00;98897.50;;;14.45;100.00
5595;BME280;1003;48.002;7.788;2023-04-02T09:08:30;98904.91;;;14.79;100.00
5595;BME280;1003;48.002;7.788;2023-04-02T09:11:05;98912.03;;;14.38;100.00
5595;BME280;1003;48.002;7.788;2023-04-02T09:13:39;98921.94;;;14.74;100.00
5595;BME280;1003;48.002;7.788;2023-04-02T09:16:11;98912.34;;;15.10;100.00
5595;BME280;1003;48.002;7.788;2023-04-02T09:18:39;98917.59;;;15.04;100.00
5595;BME280;1003;48.002;7.788;2023-04-02T09:21:32;98916.69;;;15.32;100.00
5595;BME280;1003;48.002;7.788;2023-04-02T09:24:00;98912.53;;;15.54;100.00
5595;BME280;1003;48.002;7.788;2023-04-02T09:26:31;98913.69;;;15.70;100.00
5595;BME280;1003;48.002;7.788;2023-04-02T09:29:14;98888.47;;;15.91;100.00
5595;BME280;1003;48.002;7.788;2023-04-02T09:31:50;98890.59;;;15.30;100.00
5595;BME280;1003;48.002;7.788;2023-04-02T09:34:29;98896.38;;;15.83;100.00
5595;BME280;1003;48.002;7.788;2023-04-02T09:37:05;98900.19;;;15.70;100.00
5595;BME280;1003;48.002;7.788;2023-04-02T09:39:33;98899.03;;;16.02;100.00
5595;BME280;1003;48.002;7.788;2023-04-02T09:42:07;98887.75;;;15.64;100.00
5595;BME280;1003;48.002;7.788;2023-04-02T09:44:34;98894.06;;;15.27;100.00
5595;BME280;1003;48.002;7.788;2023-04-02T09:47:04;98903.44;;;15.97;100.00
5595;BME280;1003;48.002;7.788;2023-04-02T09:49:35;98890.38;;;16.31;100.00
5595;BME280;1003;48.002;7.788;2023-04-02T09:52:20;98869.00;;;16.37;100.00
5595;BME280;1003;48.002;7.788;2023-04-02T09:55:20;98866.41;;;16.38;100.00
5595;BME280;1003;48.002;7.788;2023-04-02T09:57:50;98867.00;;;16.23;100.00
5595;BME280;1003;48.002;7.788;2023-04-02T10:00:22;98867.97;;;16.63;100.00
5595;BME280;1003;48.002;7.788;2023-04-02T10:03:05;98861.09;;;16.44;100.00
5595;BME280;1003;48.002;7.788;2023-04-02T10:05:33;98861.41;;;15.91;100.00
5595;BME280;1003;48.002;7.788;2023-04-02T10:08:17;98862.91;;;15.73;100.00
5595;BME280;1003;48.002;7.788;2023-04-02T10:10:49;98875.88;;;15.66;100.00
5595;BME280;1003;48.002;7.788;2023-04-02T10:13:25;98873.66;;;16.04;100.00
5595;BME280;1003;48.002;7.788;2023-04-02T10:15:59;98874.47;;;16.70;100.00
5595;BME280;1003;48.002;7.788;2023-04-02T10:18:41;98863.91;;;16.59;100.00
5595;BME280;1003;48.002;7.788;2023-04-02T10:21:15;98864.31;;;16.70;100.00
5595;BME280;1003;48.002;7.788;2023-04-02T10:23:43;98852.81;;;17.03;100.00
5595;BME280;1003;48.002;7.788;2023-04-02T10:29:43;98842.28;;;16.92;100.00
5595;BME280;1003;48.002;7.788;2023-04-02T10:32:18;98844.69;;;16.75;100.00
5595;BME280;1003;48.002;7.788;2023-04-02T10:34:56;98838.09;;;16.91;100.00
5595;BME280;1003;48.002;7.788;2023-04-02T10:37:59;98837.94;;;17.15;100.00
5595;BME280;1003;48.002;7.788;2023-04-02T10:40:34;98838.97;;;17.69;100.00
5595;BME280;1003;48.002;7.788;2023-04-02T10:43:30;98838.00;;;18.28;100.00
5595;BME280;1003;48.002;7.788;2023-04-02T10:46:05;98824.63;;;18.42;100.00
5595;BME280;1003;48.002;7.788;2023-04-02T10:48:45;98808.84;;;18.35;100.00
5595;BME280;1003;48.002;7.788;2023-04-02T10:51:33;98820.16;;;18.47;100.00
5595;BME280;1003;48.002;7.788;2023-04-02T10:54:29;98814.63;;;17.25;100.00
5595;BME280;1003;48.002;7.788;2023-04-02T10:57:05;98826.44;;;18.03;100.00
5595;BME280;1003;48.002;7.788;2023-04-02T10:59:39;98812.84;;;18.75;100.00
5595;BME280;1003;48.002;7.788;2023-04-02T11:02:29;98809.19;;;17.91;100.00
5595;BME280;1003;48.002;7.788;2023-04-02T11:05:05;98820.34;;;17.10;100.00
5595;BME280;1003;48.002;7.788;2023-04-02T11:07:48;98823.47;;;17.75;100.00
5595;BME280;1003;48.002;7.788;2023-04-02T11:10:20;98826.22;;;17.89;100.00
5595;BME280;1003;48.002;7.788;2023-04-02T11:12:55;98826.16;;;18.27;100.00
5595;BME280;1003;48.002;7.788;2023-04-02T11:15:23;98826.59;;;17.81;100.00
5595;BME280;1003;48.002;7.788;2023-04-02T11:17:52;98832.69;;;17.96;100.00
5595;BME280;1003;48.002;7.788;2023-04-02T11:20:59;98840.50;;;17.92;100.00
5595;BME280;1003;48.002;7.788;2023-04-02T11:23:31;98831.16;;;18.11;100.00
5595;BME280;1003;48.002;7.788;2023-04-02T11:26:41;98828.31;;;18.17;100.00
5595;BME280;1003;48.002;7.788;2023-04-02T11:29:20;98834.81;;;18.05;100.00
5595;BME280;1003;48.002;7.788;2023-04-02T11:32:11;98836.84;;;17.59;100.00
5595;BME280;1003;48.002;7.788;2023-04-02T11:37:43;98830.22;;;16.97;100.00
5595;BME280;1003;48.002;7.788;2023-04-02T11:40:47;98847.97;;;16.77;100.00
5595;BME280;1003;48.002;7.788;2023-04-02T11:43:59;98855.53;;;16.78;100.00
5595;BME280;1003;48.002;7.788;2023-04-02T11:46:42;98845.06;;;16.86;100.00
5595;BME280;1003;48.002;7.788;2023-04-02T11:49:38;98844.97;;;17.49;100.00
5595;BME280;1003;48.002;7.788;2023-04-02T11:52:26;98853.88;;;17.57;100.00
5595;BME280;1003;48.002;7.788;2023-04-02T11:55:25;98848.78;;;17.39;100.00
5595;BME280;1003;48.002;7.788;2023-04-02T11:58:36;98834.03;;;17.66;100.00
5595;BME280;1003;48.002;7.788;2023-04-02T12:01:44;98844.16;;;17.86;100.00
5595;BME280;1003;48.002;7.788;2023-04-02T12:04:46;98833.59;;;18.68;100.00
5595;BME280;1003;48.002;7.788;2023-04-02T12:07:45;98826.28;;;18.43;100.00
5595;BME280;1003;48.002;7.788;2023-04-02T12:10:21;98825.38;;;18.61;100.00
5595;BME280;1003;48.002;7.788;2023-04-02T12:12:49;98817.53;;;18.66;100.00
5595;BME280;1003;48.002;7.788;2023-04-02T12:15:33;98826.31;;;18.77;100.00
5595;BME280;1003;48.002;7.788;2023-04-02T12:18:12;98821.09;;;18.61;100.00
5595;BME280;1003;48.002;7.788;2023-04-02T12:20:40;98819.69;;;18.56;100.00
5595;BME280;1003;48.002;7.788;2023-04-02T12:23:19;98814.16;;;18.48;100.00
5595;BME280;1003;48.002;7.788;2023-04-02T12:25:56;98811.19;;;18.74;100.00
5595;BME280;1003;48.002;7.788;2023-04-02T12:28:27;98813.56;;;18.60;100.00
5595;BME280;1003;48.002;7.788;2023-04-02T12:31:04;98824.91;;;18.89;100.00
5595;BME280;1003;48.002;7.788;2023-04-02T12:33:39;98816.81;;;18.81;100.00
5595;BME280;1003;48.002;7.788;2023-04-02T12:36:18;98825.00;;;19.03;100.00
5595;BME280;1003;48.002;7.788;2023-04-02T12:38:50;98824.00;;;18.73;100.00
5595;BME280;1003;48.002;7.788;2023-04-02T12:41:24;98824.88;;;17.82;100.00
5595;BME280;1003;48.002;7.788;2023-04-02T12:43:59;98833.06;;;18.25;100.00
5595;BME280;1003;48.002;7.788;2023-04-02T12:46:27;98828.28;;;17.81;100.00
5595;BME280;1003;48.002;7.788;2023-04-02T12:49:03;98826.34;;;17.86;100.00
5595;BME280;1003;48.002;7.788;2023-04-02T12:51:31;98833.84;;;17.89;100.00
5595;BME280;1003;48.002;7.788;2023-04-02T12:54:00;98829.50;;;18.98;100.00
5595;BME280;1003;48.002;7.788;2023-04-02T12:56:28;98823.59;;;19.31;100.00
5595;BME280;1003;48.002;7.788;2023-04-02T12:58:56;98830.63;;;19.43;100.00
5595;BME280;1003;48.002;7.788;2023-04-02T13:01:25;98833.75;;;19.32;100.00
5595;BME280;1003;48.002;7.788;2023-04-02T13:04:02;98828.41;;;19.70;100.00
5595;BME280;1003;48.002;7.788;2023-04-02T13:06:29;98834.94;;;19.74;100.00
5595;BME280;1003;48.002;7.788;2023-04-02T13:08:58;98833.41;;;19.38;100.00
5595;BME280;1003;48.002;7.788;2023-04-02T13:11:36;98840.06;;;19.41;100.00
5595;BME280;1003;48.002;7.788;2023-04-02T13:14:06;98836.78;;;18.88;100.00
5595;BME280;1003;48.002;7.788;2023-04-02T13:16:35;98829.63;;;18.79;100.00
5595;BME280;1003;48.002;7.788;2023-04-02T13:19:23;98832.16;;;18.79;100.00
5595;BME280;1003;48.002;7.788;2023-04-02T13:21:51;98835.97;;;18.88;100.00
5595;BME280;1003;48.002;7.788;2023-04-02T13:24:20;98826.88;;;18.65;100.00
5595;BME280;1003;48.002;7.788;2023-04-02T13:26:53;98832.31;;;18.40;100.00
5595;BME280;1003;48.002;7.788;2023-04-02T13:29:25;98831.06;;;18.66;100.00
5595;BME280;1003;48.002;7.788;2023-04-02T13:31:55;98835.53;;;18.26;100.00
5595;BME280;1003;48.002;7.788;2023-04-02T13:34:23;98832.16;;;18.26;100.00
5595;BME280;1003;48.002;7.788;2023-04-02T13:36:50;98837.22;;;17.71;100.00
5595;BME280;1003;48.002;7.788;2023-04-02T13:39:18;98843.44;;;16.85;100.00
5595;BME280;1003;48.002;7.788;2023-04-02T13:41:50;98846.91;;;16.61;100.00
5595;BME280;1003;48.002;7.788;2023-04-02T13:44:21;98851.38;;;16.12;100.00
5595;BME280;1003;48.002;7.788;2023-04-02T13:46:50;98855.31;;;16.19;100.00
5595;BME280;1003;48.002;7.788;2023-04-02T13:49:17;98852.69;;;15.52;100.00
5595;BME280;1003;48.002;7.788;2023-04-02T13:51:47;98868.28;;;15.16;100.00
5595;BME280;1003;48.002;7.788;2023-04-02T13:54:23;98879.13;;;14.68;100.00
5595;BME280;1003;48.002;7.788;2023-04-02T13:56:54;98877.28;;;14.45;100.00
5595;BME280;1003;48.002;7.788;2023-04-02T13:59:22;98888.78;;;13.98;100.00
5595;BME280;1003;48.002;7.788;2023-04-02T14:01:52;98883.16;;;13.89;100.00
5595;BME280;1003;48.002;7.788;2023-04-02T14:04:26;98884.19;;;14.12;100.00
5595;BME280;1003;48.002;7.788;2023-04-02T14:07:24;98881.09;;;14.02;100.00